sensor_id;sensor_type;location;lat;lon;timestamp;P1;durP1;ratioP1;P2;durP2;ratioP2
75548;SDS011;64133;56.002;37.208;2022-10-17T00:02:10;4.12;;;2.10;;
75548;SDS011;64133;56.002;37.208;2022-10-17T00:07:15;3.85;;;2.22;;
75548;SDS011;64133;56.002;37.208;2022-10-17T00:12:21;3.30;;;2.30;;
75548;SDS011;64133;56.002;37.208;2022-10-17T00:17:26;3.77;;;2.40;;
75548;SDS011;64133;56.002;37.208;2022-10-17T00:22:31;4.67;;;2.47;;
75548;SDS011;64133;56.002;37.208;2022-10-17T00:27:36;4.42;;;2.65;;
75548;SDS011;64133;56.002;37.208;2022-10-17T00:32:41;7.50;;;2.70;;
75548;SDS011;64133;56.002;37.208;2022-10-17T00:37:45;4.95;;;2.02;;
75548;SDS011;64133;56.002;37.208;2022-10-17T00:42:51;2.77;;;1.85;;
75548;SDS011;64133;56.002;37.208;2022-10-17T00:47:57;4.35;;;2.58;;
75548;SDS011;64133;56.002;37.208;2022-10-17T00:53:01;4.72;;;2.50;;
75548;SDS011;64133;56.002;37.208;2022-10-17T00:58:06;6.08;;;2.25;;
75548;SDS011;64133;56.002;37.208;2022-10-17T01:03:12;4.05;;;2.70;;
75548;SDS011;64133;56.002;37.208;2022-10-17T01:08:16;5.53;;;2.40;;
75548;SDS011;64133;56.002;37.208;2022-10-17T01:13:23;4.67;;;2.00;;
75548;SDS011;64133;56.002;37.208;2022-10-17T01:18:37;5.87;;;2.27;;
75548;SDS011;64133;56.002;37.208;2022-10-17T01:23:55;3.98;;;1.92;;
75548;SDS011;64133;56.002;37.208;2022-10-17T01:29:34;3.83;;;2.50;;
75548;SDS011;64133;56.002;37.208;2022-10-17T01:39:48;3.45;;;1.92;;
75548;SDS011;64133;56.002;37.208;2022-10-17T01:44:54;3.65;;;2.25;;
75548;SDS011;64133;56.002;37.208;2022-10-17T01:49:59;4.12;;;1.72;;
75548;SDS011;64133;56.002;37.208;2022-10-17T01:55:05;4.95;;;2.33;;
75548;SDS011;64133;56.002;37.208;2022-10-17T02:00:11;4.58;;;2.08;;
75548;SDS011;64133;56.002;37.208;2022-10-17T02:05:16;2.37;;;1.32;;
75548;SDS011;64133;56.002;37.208;2022-10-17T02:10:24;4.78;;;1.75;;
75548;SDS011;64133;56.002;37.208;2022-10-17T02:15:31;2.98;;;1.90;;
75548;SDS011;64133;56.002;37.208;2022-10-17T02:20:56;5.55;;;2.45;;
75548;SDS011;64133;56.002;37.208;2022-10-17T02:26:02;6.83;;;3.08;;
75548;SDS011;64133;56.002;37.208;2022-10-17T02:31:07;3.77;;;2.55;;
75548;SDS011;64133;56.002;37.208;2022-10-17T02:36:13;4.35;;;2.65;;
75548;SDS011;64133;56.002;37.208;2022-10-17T02:41:17;2.20;;;1.40;;
75548;SDS011;64133;56.002;37.208;2022-10-17T02:46:22;4.60;;;2.10;;
75548;SDS011;64133;56.002;37.208;2022-10-17T02:51:27;4.85;;;2.27;;
75548;SDS011;64133;56.002;37.208;2022-10-17T02:56:33;4.08;;;2.17;;
75548;SDS011;64133;56.002;37.208;2022-10-17T03:01:37;4.30;;;2.58;;
75548;SDS011;64133;56.002;37.208;2022-10-17T03:06:42;5.50;;;2.58;;
75548;SDS011;64133;56.002;37.208;2022-10-17T03:11:47;8.80;;;2.52;;
75548;SDS011;64133;56.002;37.208;2022-10-17T03:16:53;5.00;;;2.58;;
75548;SDS011;64133;56.002;37.208;2022-10-17T03:21:58;5.55;;;3.17;;
75548;SDS011;64133;56.002;37.208;2022-10-17T03:27:03;3.55;;;2.52;;
75548;SDS011;64133;56.002;37.208;2022-10-17T03:32:08;4.62;;;2.92;;
75548;SDS011;64133;56.002;37.208;2022-10-17T03:37:13;5.40;;;3.15;;
75548;SDS011;64133;56.002;37.208;2022-10-17T03:42:18;4.10;;;2.37;;
75548;SDS011;64133;56.002;37.208;2022-10-17T03:47:23;4.00;;;1.95;;
75548;SDS011;64133;56.002;37.208;2022-10-17T03:52:28;5.83;;;2.62;;
75548;SDS011;64133;56.002;37.208;2022-10-17T03:57:34;3.90;;;1.75;;
75548;SDS011;64133;56.002;37.208;2022-10-17T04:02:39;5.20;;;2.58;;
75548;SDS011;64133;56.002;37.208;2022-10-17T04:07:44;3.98;;;2.47;;
75548;SDS011;64133;56.002;37.208;2022-10-17T04:12:49;6.30;;;2.17;;
75548;SDS011;64133;56.002;37.208;2022-10-17T04:17:54;4.20;;;2.08;;
75548;SDS011;64133;56.002;37.208;2022-10-17T04:22:59;5.15;;;2.92;;
75548;SDS011;64133;56.002;37.208;2022-10-17T04:28:04;3.98;;;2.20;;
75548;SDS011;64133;56.002;37.208;2022-10-17T04:33:09;5.22;;;2.47;;
75548;SDS011;64133;56.002;37.208;2022-10-17T04:38:14;3.77;;;2.40;;
75548;SDS011;64133;56.002;37.208;2022-10-17T04:43:19;2.40;;;1.35;;
75548;SDS011;64133;56.002;37.208;2022-10-17T04:48:24;5.92;;;3.02;;
75548;SDS011;64133;56.002;37.208;2022-10-17T04:53:31;4.05;;;2.20;;
75548;SDS011;64133;56.002;37.208;2022-10-17T04:58:35;4.47;;;3.15;;
75548;SDS011;64133;56.002;37.208;2022-10-17T05:03:40;4.80;;;2.75;;
75548;SDS011;64133;56.002;37.208;2022-10-17T05:08:46;4.65;;;2.60;;
75548;SDS011;64133;56.002;37.208;2022-10-17T05:13:51;4.85;;;2.22;;
75548;SDS011;64133;56.002;37.208;2022-10-17T05:18:56;3.95;;;1.62;;
75548;SDS011;64133;56.002;37.208;2022-10-17T05:24:00;3.87;;;1.45;;
75548;SDS011;64133;56.002;37.208;2022-10-17T05:29:05;6.67;;;2.30;;
75548;SDS011;64133;56.002;37.208;2022-10-17T05:34:11;7.90;;;3.12;;
75548;SDS011;64133;56.002;37.208;2022-10-17T05:39:16;4.72;;;3.12;;
75548;SDS011;64133;56.002;37.208;2022-10-17T05:44:21;8.55;;;3.55;;
75548;SDS011;64133;56.002;37.208;2022-10-17T05:49:26;6.25;;;3.22;;
75548;SDS011;64133;56.002;37.208;2022-10-17T05:54:31;5.45;;;2.92;;
75548;SDS011;64133;56.002;37.208;2022-10-17T05:59:36;6.08;;;2.92;;
75548;SDS011;64133;56.002;37.208;2022-10-17T06:04:41;7.55;;;3.70;;
75548;SDS011;64133;56.002;37.208;2022-10-17T06:09:46;5.62;;;3.20;;
75548;SDS011;64133;56.002;37.208;2022-10-17T06:14:51;4.40;;;2.55;;
75548;SDS011;64133;56.002;37.208;2022-10-17T06:19:56;6.35;;;3.37;;
75548;SDS011;64133;56.002;37.208;2022-10-17T06:25:01;6.15;;;3.52;;
75548;SDS011;64133;56.002;37.208;2022-10-17T06:30:07;4.47;;;3.35;;
75548;SDS011;64133;56.002;37.208;2022-10-17T06:35:12;6.08;;;3.65;;
75548;SDS011;64133;56.002;37.208;2022-10-17T06:40:18;7.20;;;3.72;;
75548;SDS011;64133;56.002;37.208;2022-10-17T06:45:23;6.37;;;3.42;;
75548;SDS011;64133;56.002;37.208;2022-10-17T06:50:28;4.53;;;3.08;;
75548;SDS011;64133;56.002;37.208;2022-10-17T06:55:33;5.58;;;3.50;;
75548;SDS011;64133;56.002;37.208;2022-10-17T07:00:38;4.45;;;3.40;;
75548;SDS011;64133;56.002;37.208;2022-10-17T07:05:43;4.58;;;2.70;;
75548;SDS011;64133;56.002;37.208;2022-10-17T07:10:55;2.33;;;1.47;;
75548;SDS011;64133;56.002;37.208;2022-10-17T07:16:09;7.35;;;3.10;;
75548;SDS011;64133;56.002;37.208;2022-10-17T07:21:13;9.45;;;3.12;;
75548;SDS011;64133;56.002;37.208;2022-10-17T07:26:21;5.17;;;2.65;;
75548;SDS011;64133;56.002;37.208;2022-10-17T07:31:26;9.65;;;2.75;;
75548;SDS011;64133;56.002;37.208;2022-10-17T07:36:31;6.53;;;3.10;;
75548;SDS011;64133;56.002;37.208;2022-10-17T07:41:36;5.85;;;3.37;;
75548;SDS011;64133;56.002;37.208;2022-10-17T07:46:41;7.50;;;3.42;;
75548;SDS011;64133;56.002;37.208;2022-10-17T07:51:47;5.25;;;3.05;;
75548;SDS011;64133;56.002;37.208;2022-10-17T07:56:52;5.15;;;3.15;;
75548;SDS011;64133;56.002;37.208;2022-10-17T08:01:57;7.22;;;2.92;;
75548;SDS011;64133;56.002;37.208;2022-10-17T08:07:02;6.40;;;3.20;;
75548;SDS011;64133;56.002;37.208;2022-10-17T08:12:07;8.75;;;3.37;;
75548;SDS011;64133;56.002;37.208;2022-10-17T08:17:12;4.97;;;2.58;;
75548;SDS011;64133;56.002;37.208;2022-10-17T08:22:17;6.60;;;2.83;;
75548;SDS011;64133;56.002;37.208;2022-10-17T08:27:22;9.40;;;3.58;;
75548;SDS011;64133;56.002;37.208;2022-10-17T08:32:27;5.12;;;3.25;;
75548;SDS011;64133;56.002;37.208;2022-10-17T08:37:32;6.50;;;2.87;;
75548;SDS011;64133;56.002;37.208;2022-10-17T08:42:44;7.50;;;3.65;;
75548;SDS011;64133;56.002;37.208;2022-10-17T08:48:07;7.25;;;3.37;;
75548;SDS011;64133;56.002;37.208;2022-10-17T08:53:13;5.67;;;2.40;;
75548;SDS011;64133;56.002;37.208;2022-10-17T08:58:19;6.97;;;2.98;;
75548;SDS011;64133;56.002;37.208;2022-10-17T09:03:37;8.48;;;4.17;;
75548;SDS011;64133;56.002;37.208;2022-10-17T09:08:51;5.17;;;2.90;;
75548;SDS011;64133;56.002;37.208;2022-10-17T09:13:59;10.40;;;4.67;;
75548;SDS011;64133;56.002;37.208;2022-10-17T09:19:06;5.90;;;3.62;;
75548;SDS011;64133;56.002;37.208;2022-10-17T09:24:12;7.47;;;3.77;;
75548;SDS011;64133;56.002;37.208;2022-10-17T09:29:19;7.08;;;3.30;;
75548;SDS011;64133;56.002;37.208;2022-10-17T09:34:23;6.55;;;3.17;;
75548;SDS011;64133;56.002;37.208;2022-10-17T09:39:29;5.67;;;3.37;;
75548;SDS011;64133;56.002;37.208;2022-10-17T09:44:34;5.92;;;3.27;;
75548;SDS011;64133;56.002;37.208;2022-10-17T09:49:40;4.47;;;2.52;;
75548;SDS011;64133;56.002;37.208;2022-10-17T09:54:45;9.15;;;3.50;;
75548;SDS011;64133;56.002;37.208;2022-10-17T09:59:56;6.55;;;4.00;;
75548;SDS011;64133;56.002;37.208;2022-10-17T10:05:02;6.12;;;3.72;;
75548;SDS011;64133;56.002;37.208;2022-10-17T10:10:23;11.68;;;5.37;;
75548;SDS011;64133;56.002;37.208;2022-10-17T10:15:32;10.05;;;4.42;;
75548;SDS011;64133;56.002;37.208;2022-10-17T10:20:37;7.35;;;4.25;;
75548;SDS011;64133;56.002;37.208;2022-10-17T10:25:50;8.05;;;5.08;;
75548;SDS011;64133;56.002;37.208;2022-10-17T10:30:57;9.20;;;4.47;;
75548;SDS011;64133;56.002;37.208;2022-10-17T10:36:03;8.70;;;4.95;;
75548;SDS011;64133;56.002;37.208;2022-10-17T10:41:08;7.72;;;4.08;;
75548;SDS011;64133;56.002;37.208;2022-10-17T10:46:16;9.50;;;5.78;;
75548;SDS011;64133;56.002;37.208;2022-10-17T10:51:22;8.20;;;4.60;;
75548;SDS011;64133;56.002;37.208;2022-10-17T10:56:28;9.35;;;5.47;;
75548;SDS011;64133;56.002;37.208;2022-10-17T11:01:34;10.88;;;5.92;;
75548;SDS011;64133;56.002;37.208;2022-10-17T11:06:39;9.85;;;4.53;;
75548;SDS011;64133;56.002;37.208;2022-10-17T11:11:45;9.30;;;5.15;;
75548;SDS011;64133;56.002;37.208;2022-10-17T11:16:52;9.63;;;5.08;;
75548;SDS011;64133;56.002;37.208;2022-10-17T11:21:58;7.12;;;4.78;;
75548;SDS011;64133;56.002;37.208;2022-10-17T11:27:04;8.48;;;5.15;;
75548;SDS011;64133;56.002;37.208;2022-10-17T11:32:10;9.15;;;4.75;;
75548;SDS011;64133;56.002;37.208;2022-10-17T11:37:25;12.95;;;6.67;;
75548;SDS011;64133;56.002;37.208;2022-10-17T11:42:30;8.20;;;4.50;;
75548;SDS011;64133;56.002;37.208;2022-10-17T11:47:45;12.82;;;5.15;;
75548;SDS011;64133;56.002;37.208;2022-10-17T11:52:51;10.60;;;5.53;;
75548;SDS011;64133;56.002;37.208;2022-10-17T11:58:04;11.63;;;5.47;;
75548;SDS011;64133;56.002;37.208;2022-10-17T12:03:16;11.75;;;5.47;;
75548;SDS011;64133;56.002;37.208;2022-10-17T12:08:24;16.25;;;6.75;;
75548;SDS011;64133;56.002;37.208;2022-10-17T12:19:12;10.45;;;5.45;;
75548;SDS011;64133;56.002;37.208;2022-10-17T12:24:39;13.45;;;5.55;;
75548;SDS011;64133;56.002;37.208;2022-10-17T12:34:51;10.98;;;4.90;;
75548;SDS011;64133;56.002;37.208;2022-10-17T12:39:56;10.90;;;6.40;;
75548;SDS011;64133;56.002;37.208;2022-10-17T12:45:01;12.58;;;5.60;;
75548;SDS011;64133;56.002;37.208;2022-10-17T12:56:12;9.90;;;5.85;;
75548;SDS011;64133;56.002;37.208;2022-10-17T13:01:17;11.12;;;6.20;;
75548;SDS011;64133;56.002;37.208;2022-10-17T13:06:23;11.30;;;6.05;;
75548;SDS011;64133;56.002;37.208;2022-10-17T13:11:27;11.25;;;6.37;;
75548;SDS011;64133;56.002;37.208;2022-10-17T13:16:33;10.05;;;5.62;;
75548;SDS011;64133;56.002;37.208;2022-10-17T13:21:37;13.72;;;6.70;;
75548;SDS011;64133;56.002;37.208;2022-10-17T13:26:44;9.13;;;6.20;;
75548;SDS011;64133;56.002;37.208;2022-10-17T13:31:51;10.63;;;6.12;;
75548;SDS011;64133;56.002;37.208;2022-10-17T13:36:56;12.07;;;6.22;;
75548;SDS011;64133;56.002;37.208;2022-10-17T13:42:01;12.88;;;6.35;;
75548;SDS011;64133;56.002;37.208;2022-10-17T13:47:18;7.67;;;3.75;;
75548;SDS011;64133;56.002;37.208;2022-10-17T13:52:25;9.48;;;5.65;;
75548;SDS011;64133;56.002;37.208;2022-10-17T13:57:29;11.00;;;5.60;;
75548;SDS011;64133;56.002;37.208;2022-10-17T14:02:34;11.45;;;6.20;;
75548;SDS011;64133;56.002;37.208;2022-10-17T14:07:39;12.05;;;6.35;;
75548;SDS011;64133;56.002;37.208;2022-10-17T14:12:44;9.68;;;6.15;;
75548;SDS011;64133;56.002;37.208;2022-10-17T14:17:53;10.50;;;5.72;;
75548;SDS011;64133;56.002;37.208;2022-10-17T14:22:58;10.15;;;6.50;;
75548;SDS011;64133;56.002;37.208;2022-10-17T14:28:13;11.57;;;6.30;;
75548;SDS011;64133;56.002;37.208;2022-10-17T14:33:20;10.63;;;6.55;;
75548;SDS011;64133;56.002;37.208;2022-10-17T14:38:23;11.65;;;6.67;;
75548;SDS011;64133;56.002;37.208;2022-10-17T14:43:28;14.25;;;6.62;;
75548;SDS011;64133;56.002;37.208;2022-10-17T14:48:33;12.25;;;7.28;;
75548;SDS011;64133;56.002;37.208;2022-10-17T14:53:38;11.57;;;5.90;;
75548;SDS011;64133;56.002;37.208;2022-10-17T14:58:43;14.60;;;6.08;;
75548;SDS011;64133;56.002;37.208;2022-10-17T15:03:48;8.38;;;4.80;;
75548;SDS011;64133;56.002;37.208;2022-10-17T15:08:53;12.58;;;6.75;;
75548;SDS011;64133;56.002;37.208;2022-10-17T15:13:59;13.88;;;7.28;;
75548;SDS011;64133;56.002;37.208;2022-10-17T15:19:04;9.23;;;4.70;;
75548;SDS011;64133;56.002;37.208;2022-10-17T15:24:09;15.08;;;7.83;;
75548;SDS011;64133;56.002;37.208;2022-10-17T15:29:14;13.38;;;7.85;;
75548;SDS011;64133;56.002;37.208;2022-10-17T15:34:19;15.60;;;7.62;;
75548;SDS011;64133;56.002;37.208;2022-10-17T15:39:24;12.03;;;5.62;;
75548;SDS011;64133;56.002;37.208;2022-10-17T15:44:29;9.70;;;4.55;;
75548;SDS011;64133;56.002;37.208;2022-10-17T15:49:34;14.07;;;5.87;;
75548;SDS011;64133;56.002;37.208;2022-10-17T15:54:41;11.75;;;6.12;;
75548;SDS011;64133;56.002;37.208;2022-10-17T15:59:46;12.63;;;7.03;;
75548;SDS011;64133;56.002;37.208;2022-10-17T16:04:51;12.90;;;6.03;;
75548;SDS011;64133;56.002;37.208;2022-10-17T16:09:56;17.23;;;7.75;;
75548;SDS011;64133;56.002;37.208;2022-10-17T16:15:02;14.20;;;7.20;;
75548;SDS011;64133;56.002;37.208;2022-10-17T16:20:09;15.90;;;8.15;;
75548;SDS011;64133;56.002;37.208;2022-10-17T16:25:17;15.88;;;8.23;;
75548;SDS011;64133;56.002;37.208;2022-10-17T16:30:22;14.35;;;7.03;;
75548;SDS011;64133;56.002;37.208;2022-10-17T16:35:29;12.85;;;5.97;;
75548;SDS011;64133;56.002;37.208;2022-10-17T16:40:37;14.55;;;7.58;;
75548;SDS011;64133;56.002;37.208;2022-10-17T16:45:41;16.12;;;8.90;;
75548;SDS011;64133;56.002;37.208;2022-10-17T16:50:47;13.68;;;8.30;;
75548;SDS011;64133;56.002;37.208;2022-10-17T16:55:58;12.75;;;5.65;;
75548;SDS011;64133;56.002;37.208;2022-10-17T17:01:04;16.45;;;8.83;;
75548;SDS011;64133;56.002;37.208;2022-10-17T17:06:11;12.00;;;7.28;;
75548;SDS011;64133;56.002;37.208;2022-10-17T17:11:16;15.65;;;8.90;;
75548;SDS011;64133;56.002;37.208;2022-10-17T17:16:20;15.65;;;7.30;;
75548;SDS011;64133;56.002;37.208;2022-10-17T17:21:25;15.35;;;7.97;;
75548;SDS011;64133;56.002;37.208;2022-10-17T17:26:31;17.25;;;7.35;;
75548;SDS011;64133;56.002;37.208;2022-10-17T17:31:37;16.90;;;7.95;;
75548;SDS011;64133;56.002;37.208;2022-10-17T17:36:42;18.42;;;7.35;;
75548;SDS011;64133;56.002;37.208;2022-10-17T17:41:49;14.05;;;6.87;;
75548;SDS011;64133;56.002;37.208;2022-10-17T17:46:54;15.23;;;8.13;;
75548;SDS011;64133;56.002;37.208;2022-10-17T17:51:59;14.60;;;8.28;;
75548;SDS011;64133;56.002;37.208;2022-10-17T17:57:13;16.93;;;7.65;;
75548;SDS011;64133;56.002;37.208;2022-10-17T18:02:18;13.10;;;7.22;;
75548;SDS011;64133;56.002;37.208;2022-10-17T18:07:23;14.53;;;7.85;;
75548;SDS011;64133;56.002;37.208;2022-10-17T18:12:28;13.32;;;7.30;;
75548;SDS011;64133;56.002;37.208;2022-10-17T18:17:36;14.03;;;7.62;;
75548;SDS011;64133;56.002;37.208;2022-10-17T18:22:42;16.32;;;7.53;;
75548;SDS011;64133;56.002;37.208;2022-10-17T18:27:52;14.83;;;8.20;;
75548;SDS011;64133;56.002;37.208;2022-10-17T18:32:59;14.40;;;7.37;;
75548;SDS011;64133;56.002;37.208;2022-10-17T18:38:10;16.57;;;8.40;;
75548;SDS011;64133;56.002;37.208;2022-10-17T18:43:15;11.70;;;5.70;;
75548;SDS011;64133;56.002;37.208;2022-10-17T18:48:20;14.90;;;7.55;;
75548;SDS011;64133;56.002;37.208;2022-10-17T18:53:26;14.33;;;7.40;;
75548;SDS011;64133;56.002;37.208;2022-10-17T19:03:46;14.98;;;7.78;;
75548;SDS011;64133;56.002;37.208;2022-10-17T19:08:51;15.50;;;8.20;;
75548;SDS011;64133;56.002;37.208;2022-10-17T19:13:56;12.90;;;7.87;;
75548;SDS011;64133;56.002;37.208;2022-10-17T19:19:04;12.88;;;8.00;;
75548;SDS011;64133;56.002;37.208;2022-10-17T19:24:07;14.35;;;8.00;;
75548;SDS011;64133;56.002;37.208;2022-10-17T19:29:13;14.93;;;8.15;;
75548;SDS011;64133;56.002;37.208;2022-10-17T19:34:17;16.55;;;8.85;;
75548;SDS011;64133;56.002;37.208;2022-10-17T19:44:35;15.35;;;7.55;;
75548;SDS011;64133;56.002;37.208;2022-10-17T19:49:48;15.53;;;7.67;;
75548;SDS011;64133;56.002;37.208;2022-10-17T19:55:14;15.15;;;7.87;;
75548;SDS011;64133;56.002;37.208;2022-10-17T20:00:19;16.62;;;7.87;;
75548;SDS011;64133;56.002;37.208;2022-10-17T20:05:24;16.95;;;8.43;;
75548;SDS011;64133;56.002;37.208;2022-10-17T20:10:29;10.82;;;6.58;;
75548;SDS011;64133;56.002;37.208;2022-10-17T20:15:34;11.88;;;6.90;;
75548;SDS011;64133;56.002;37.208;2022-10-17T20:20:39;11.30;;;7.22;;
75548;SDS011;64133;56.002;37.208;2022-10-17T20:25:45;16.82;;;8.20;;
75548;SDS011;64133;56.002;37.208;2022-10-17T20:36:07;12.88;;;8.03;;
75548;SDS011;64133;56.002;37.208;2022-10-17T20:41:11;12.65;;;8.25;;
75548;SDS011;64133;56.002;37.208;2022-10-17T20:46:16;12.10;;;6.50;;
75548;SDS011;64133;56.002;37.208;2022-10-17T20:51:21;13.60;;;7.10;;
75548;SDS011;64133;56.002;37.208;2022-10-17T20:56:27;14.70;;;6.67;;
75548;SDS011;64133;56.002;37.208;2022-10-17T21:01:32;12.60;;;7.28;;
75548;SDS011;64133;56.002;37.208;2022-10-17T21:06:38;14.73;;;7.08;;
75548;SDS011;64133;56.002;37.208;2022-10-17T21:11:43;13.38;;;6.47;;
75548;SDS011;64133;56.002;37.208;2022-10-17T21:16:48;11.33;;;5.55;;
75548;SDS011;64133;56.002;37.208;2022-10-17T21:21:53;11.00;;;5.47;;
75548;SDS011;64133;56.002;37.208;2022-10-17T21:26:58;13.32;;;6.47;;
75548;SDS011;64133;56.002;37.208;2022-10-17T21:32:03;12.20;;;6.67;;
75548;SDS011;64133;56.002;37.208;2022-10-17T21:37:09;11.83;;;6.20;;
75548;SDS011;64133;56.002;37.208;2022-10-17T21:42:13;12.15;;;6.45;;
75548;SDS011;64133;56.002;37.208;2022-10-17T21:47:18;10.68;;;6.95;;
75548;SDS011;64133;56.002;37.208;2022-10-17T21:52:24;10.70;;;5.97;;
75548;SDS011;64133;56.002;37.208;2022-10-17T21:57:29;10.80;;;6.22;;
75548;SDS011;64133;56.002;37.208;2022-10-17T22:02:34;9.98;;;5.78;;
75548;SDS011;64133;56.002;37.208;2022-10-17T22:07:38;11.03;;;6.25;;
75548;SDS011;64133;56.002;37.208;2022-10-17T22:12:43;9.95;;;5.90;;
75548;SDS011;64133;56.002;37.208;2022-10-17T22:17:48;10.63;;;5.55;;
75548;SDS011;64133;56.002;37.208;2022-10-17T22:22:53;9.80;;;5.65;;
75548;SDS011;64133;56.002;37.208;2022-10-17T22:27:58;9.18;;;5.47;;
75548;SDS011;64133;56.002;37.208;2022-10-17T22:33:03;8.50;;;5.00;;
75548;SDS011;64133;56.002;37.208;2022-10-17T22:38:08;9.70;;;5.10;;
75548;SDS011;64133;56.002;37.208;2022-10-17T22:43:13;8.60;;;4.03;;
75548;SDS011;64133;56.002;37.208;2022-10-17T22:48:18;11.73;;;4.65;;
75548;SDS011;64133;56.002;37.208;2022-10-17T22:53:23;8.20;;;4.70;;
75548;SDS011;64133;56.002;37.208;2022-10-17T22:58:29;7.75;;;5.00;;
75548;SDS011;64133;56.002;37.208;2022-10-17T23:03:33;6.78;;;3.75;;
75548;SDS011;64133;56.002;37.208;2022-10-17T23:08:46;8.75;;;4.55;;
75548;SDS011;64133;56.002;37.208;2022-10-17T23:13:51;10.60;;;4.35;;
75548;SDS011;64133;56.002;37.208;2022-10-17T23:18:57;8.65;;;4.20;;
75548;SDS011;64133;56.002;37.208;2022-10-17T23:24:02;8.78;;;4.10;;
75548;SDS011;64133;56.002;37.208;2022-10-17T23:29:07;6.53;;;3.35;;
75548;SDS011;64133;56.002;37.208;2022-10-17T23:34:12;7.30;;;4.03;;
75548;SDS011;64133;56.002;37.208;2022-10-17T23:39:17;8.43;;;4.72;;
75548;SDS011;64133;56.002;37.208;2022-10-17T23:44:22;7.37;;;4.22;;
75548;SDS011;64133;56.002;37.208;2022-10-17T23:49:27;6.97;;;4.58;;
75548;SDS011;64133;56.002;37.208;2022-10-17T23:54:32;9.78;;;3.87;;
75548;SDS011;64133;56.002;37.208;2022-10-17T23:59:37;7.67;;;3.67;;
